Time;durP1;ratioP1;P1;durP2;ratioP2;P2;SDS_P1;SDS_P2;PMS_P1;PMS_P2;Temp;Humidity;BMP_temperature;BMP_pressure;BME280_temperature;BME280_humidity;BME280_pressure;Samples;Min_cycle;Max_cycle;Signal;HPM_P1;HPM_P2
2022/07/01 00:01:00;;;;;;;28.85;12.95;;;13.50;99.90;;;;;;5073862;28;20025;-71
2022/07/01 00:03:25;;;;;;;18.42;12.35;;;13.50;99.90;;;;;;5073914;28;20090;-71
2022/07/01 00:05:51;;;;;;;19.73;11.73;;;13.50;99.90;;;;;;5073637;28;20020;-72
2022/07/01 00:08:17;;;;;;;24.88;11.55;;;13.60;99.90;;;;;;5069044;28;20041;-72
2022/07/01 00:10:43;;;;;;;20.08;12.15;;;13.60;99.90;;;;;;5071924;28;20028;-71
2022/07/01 00:13:08;;;;;;;17.38;11.45;;;13.50;99.90;;;;;;5073781;28;20025;-72
2022/07/01 00:15:34;;;;;;;20.10;12.45;;;13.50;99.90;;;;;;5073298;28;20028;-72
2022/07/01 00:18:00;;;;;;;20.88;12.27;;;13.50;99.90;;;;;;5073568;28;20529;-72
2022/07/01 00:20:26;;;;;;;17.95;11.25;;;13.60;99.90;;;;;;5073411;28;20047;-72
2022/07/01 00:22:52;;;;;;;18.85;11.35;;;13.60;99.90;;;;;;5072714;28;20073;-73
2022/07/01 00:25:18;;;;;;;17.25;11.73;;;13.60;99.90;;;;;;5073111;28;20032;-73
2022/07/01 00:27:44;;;;;;;13.73;11.20;;;13.70;99.90;;;;;;5073150;28;20032;-72
2022/07/01 00:30:10;;;;;;;18.58;11.63;;;13.80;99.90;;;;;;5073281;28;20028;-72
2022/07/01 00:32:37;;;;;;;15.52;10.63;;;13.70;99.90;;;;;;5073203;28;20477;-72
2022/07/01 00:35:03;;;;;;;16.77;10.88;;;13.70;99.90;;;;;;5072931;28;20024;-74
2022/07/01 00:37:30;;;;;;;20.27;11.93;;;13.70;99.90;;;;;;5072823;28;20050;-73
2022/07/01 00:39:55;;;;;;;20.40;11.73;;;13.70;99.90;;;;;;5073207;28;20425;-72
2022/07/01 00:42:21;;;;;;;18.05;11.18;;;13.90;99.90;;;;;;5073123;28;20052;-72
2022/07/01 00:44:47;;;;;;;29.17;11.77;;;13.90;99.90;;;;;;5072933;28;20460;-71
2022/07/01 00:47:13;;;;;;;19.33;11.27;;;13.60;99.90;;;;;;5070131;28;20021;-72
2022/07/01 00:49:40;;;;;;;19.88;10.60;;;13.50;99.90;;;;;;5073144;28;20044;-72
2022/07/01 00:52:08;;;;;;;20.15;11.93;;;13.40;99.90;;;;;;5072917;28;20028;-73
2022/07/01 00:54:36;;;;;;;19.73;10.20;;;13.50;99.90;;;;;;5073039;28;20107;-73
2022/07/01 00:57:10;;;;;;;16.58;10.65;;;13.40;99.90;;;;;;5072916;28;20028;-73
2022/07/01 00:59:38;;;;;;;14.57;10.50;;;13.50;99.90;;;;;;5071994;28;20465;-72
2022/07/01 01:02:06;;;;;;;17.52;9.77;;;13.60;99.90;;;;;;5064910;28;20425;-72
2022/07/01 01:04:32;;;;;;;16.77;10.40;;;13.70;99.90;;;;;;5072585;28;20037;-71
2022/07/01 01:07:00;;;;;;;17.25;11.43;;;13.70;99.90;;;;;;5065423;28;20028;-72
2022/07/01 01:09:26;;;;;;;22.15;11.52;;;13.60;99.90;;;;;;5058701;28;20472;-71
2022/07/01 01:11:52;;;;;;;16.77;11.05;;;13.60;99.90;;;;;;5072854;28;20028;-73
2022/07/01 01:14:18;;;;;;;23.65;12.27;;;13.50;99.90;;;;;;5072876;28;20094;-72
2022/07/01 01:16:43;;;;;;;17.92;11.90;;;13.50;99.90;;;;;;5072766;28;20496;-72
2022/07/01 01:19:09;;;;;;;23.75;13.18;;;13.50;99.90;;;;;;5072564;28;20103;-71
2022/07/01 01:21:35;;;;;;;26.10;14.63;;;13.50;99.90;;;;;;5072732;28;20433;-72
2022/07/01 01:24:01;;;;;;;21.08;13.50;;;13.50;99.90;;;;;;5072783;28;20079;-73
2022/07/01 01:26:27;;;;;;;23.67;14.80;;;13.40;99.90;;;;;;5072426;28;20044;-71
2022/07/01 01:28:52;;;;;;;17.55;13.00;;;13.50;99.90;;;;;;5071348;28;20050;-73
2022/07/01 01:31:30;;;;;;;20.27;12.95;;;13.40;99.90;;;;;;5072587;28;20024;-72
2022/07/01 01:33:56;;;;;;;24.73;14.32;;;13.40;99.90;;;;;;5071655;28;20445;-71
2022/07/01 01:36:22;;;;;;;22.20;14.80;;;13.40;99.90;;;;;;5075961;28;20032;-70
2022/07/01 01:38:48;;;;;;;21.65;14.55;;;13.30;99.90;;;;;;5076862;28;20385;-72
2022/07/01 01:41:14;;;;;;;22.90;14.98;;;13.40;99.90;;;;;;5076319;28;20165;-71
2022/07/01 01:43:39;;;;;;;21.17;15.10;;;13.40;99.90;;;;;;5076678;28;20501;-71
2022/07/01 01:46:05;;;;;;;24.35;14.88;;;13.40;99.90;;;;;;5075264;28;20020;-73
2022/07/01 01:48:31;;;;;;;23.00;14.82;;;13.40;99.90;;;;;;5075344;28;20047;-71
2022/07/01 01:50:57;;;;;;;25.88;14.00;;;13.40;99.90;;;;;;5076074;28;20016;-72
2022/07/01 01:53:24;;;;;;;25.33;14.27;;;13.50;99.90;;;;;;5076128;28;20119;-71
2022/07/01 01:55:50;;;;;;;22.75;15.13;;;13.40;99.90;;;;;;5076226;28;20020;-71
2022/07/01 01:58:16;;;;;;;27.75;15.70;;;13.50;99.90;;;;;;5076003;28;20376;-72
2022/07/01 02:00:42;;;;;;;23.60;14.13;;;13.50;99.90;;;;;;5076412;28;20013;-71
2022/07/01 02:03:09;;;;;;;20.42;13.88;;;13.40;99.90;;;;;;5076063;28;20032;-73
2022/07/01 02:05:36;;;;;;;23.77;14.77;;;13.30;99.90;;;;;;5075666;28;20024;-72
2022/07/01 02:08:02;;;;;;;23.90;14.57;;;13.40;99.90;;;;;;5073267;28;20044;-73
2022/07/01 02:10:28;;;;;;;21.77;13.43;;;13.50;99.90;;;;;;5073772;28;20086;-72
2022/07/01 02:12:54;;;;;;;24.15;14.07;;;13.40;99.90;;;;;;5075846;28;20024;-72
2022/07/01 02:15:19;;;;;;;24.17;14.27;;;13.40;99.90;;;;;;5075915;28;20082;-71
2022/07/01 02:17:45;;;;;;;25.15;15.90;;;13.40;99.90;;;;;;5075776;28;20032;-71
2022/07/01 02:20:14;;;;;;;28.30;14.63;;;13.20;99.90;;;;;;5075662;28;20111;-72
2022/07/01 02:22:41;;;;;;;24.23;14.88;;;13.10;99.90;;;;;;5075472;28;20067;-72
2022/07/01 02:25:08;;;;;;;23.23;13.70;;;13.00;99.90;;;;;;5075989;28;20077;-72
2022/07/01 02:27:34;;;;;;;20.65;14.68;;;13.10;99.90;;;;;;5075518;28;20028;-71
2022/07/01 02:30:00;;;;;;;23.45;12.88;;;13.10;99.90;;;;;;5075782;28;20384;-71
2022/07/01 02:32:25;;;;;;;26.73;12.95;;;13.00;99.90;;;;;;5075125;28;20115;-70
2022/07/01 02:34:52;;;;;;;24.23;12.75;;;13.00;99.90;;;;;;5075371;28;20021;-72
2022/07/01 02:37:18;;;;;;;24.10;14.30;;;13.00;99.90;;;;;;5074218;28;20415;-71
2022/07/01 02:39:43;;;;;;;22.27;13.35;;;13.00;99.90;;;;;;5075280;28;20029;-71
2022/07/01 02:42:26;;;;;;;23.00;14.05;;;13.00;99.90;;;;;;5075415;28;20025;-71
2022/07/01 02:44:53;;;;;;;29.92;14.05;;;13.00;99.90;;;;;;5074798;28;20033;-72
2022/07/01 02:47:20;;;;;;;25.15;14.20;;;13.10;99.90;;;;;;5063993;28;20032;-71
2022/07/01 02:49:46;;;;;;;24.35;13.98;;;13.00;99.90;;;;;;5073412;28;20032;-72
2022/07/01 02:52:12;;;;;;;24.13;13.77;;;13.10;99.90;;;;;;5075183;28;20488;-72
2022/07/01 02:54:38;;;;;;;24.85;13.27;;;13.10;99.90;;;;;;5075192;28;20027;-71
2022/07/01 02:57:04;;;;;;;26.10;14.38;;;13.00;99.90;;;;;;5075360;28;20035;-72
2022/07/01 02:59:30;;;;;;;27.02;13.68;;;13.00;99.90;;;;;;5074875;28;20385;-70
2022/07/01 03:01:55;;;;;;;24.90;14.57;;;13.00;99.90;;;;;;5075072;28;20024;-72
2022/07/01 03:04:21;;;;;;;24.45;14.65;;;13.00;99.90;;;;;;5074757;28;20500;-72
2022/07/01 03:06:47;;;;;;;24.90;14.98;;;13.00;99.90;;;;;;5074850;28;20024;-72
2022/07/01 03:09:13;;;;;;;25.90;14.15;;;13.00;99.90;;;;;;5072634;28;20044;-70
2022/07/01 03:11:38;;;;;;;22.13;14.20;;;12.90;99.90;;;;;;5075045;28;20017;-70
2022/07/01 03:14:04;;;;;;;30.73;14.70;;;12.90;99.90;;;;;;5075118;28;20548;-70
2022/07/01 03:16:30;;;;;;;21.67;14.88;;;12.80;99.90;;;;;;5074830;28;20500;-71
2022/07/01 03:18:57;;;;;;;24.08;14.90;;;12.90;99.90;;;;;;5074056;28;20362;-72
2022/07/01 03:21:23;;;;;;;22.17;14.90;;;12.90;99.90;;;;;;5074882;28;20029;-71
2022/07/01 03:23:48;;;;;;;23.48;14.73;;;13.00;99.90;;;;;;5074461;28;20406;-72
2022/07/01 03:26:14;;;;;;;27.45;14.13;;;12.90;99.90;;;;;;5074505;28;20036;-72
2022/07/01 03:28:40;;;;;;;23.55;13.55;;;12.90;99.90;;;;;;5074345;28;20041;-71
2022/07/01 03:31:06;;;;;;;22.63;14.48;;;12.90;99.90;;;;;;5073134;28;20435;-72
2022/07/01 03:33:32;;;;;;;22.58;14.30;;;12.90;99.90;;;;;;5074298;28;20125;-72
2022/07/01 03:35:58;;;;;;;25.60;13.88;;;12.90;99.90;;;;;;5074034;28;20032;-72
2022/07/01 03:38:24;;;;;;;24.52;14.13;;;13.00;99.90;;;;;;5073684;28;20028;-71
2022/07/01 03:40:50;;;;;;;27.25;14.70;;;13.00;99.90;;;;;;5073961;28;20027;-71
2022/07/01 03:43:15;;;;;;;31.88;14.15;;;12.90;99.90;;;;;;5074028;28;20489;-71
2022/07/01 03:45:41;;;;;;;28.38;14.02;;;12.90;99.90;;;;;;5074118;28;20025;-71
2022/07/01 03:48:07;;;;;;;30.48;14.65;;;12.90;99.90;;;;;;5060503;28;20033;-72
2022/07/01 03:50:32;;;;;;;29.55;15.57;;;13.00;99.90;;;;;;5074221;28;20033;-71
2022/07/01 03:55:43;;;;;;;22.85;14.18;;;13.00;99.90;;;;;;5073712;28;20133;-72
2022/07/01 03:58:08;;;;;;;36.00;14.13;;;12.90;99.90;;;;;;5072816;28;20481;-71
2022/07/01 04:00:35;;;;;;;22.15;13.50;;;12.90;99.90;;;;;;5072349;28;20033;-72
2022/07/01 04:03:02;;;;;;;22.27;14.43;;;13.00;99.90;;;;;;5073862;28;20028;-70
2022/07/01 04:05:28;;;;;;;19.92;13.70;;;12.90;99.90;;;;;;5073768;28;20112;-70
2022/07/01 04:07:54;;;;;;;35.42;14.13;;;12.90;99.90;;;;;;5072043;28;20112;-70
2022/07/01 04:10:20;;;;;;;18.90;13.65;;;13.00;99.90;;;;;;5072964;28;20028;-71
2022/07/01 04:12:46;;;;;;;23.90;13.30;;;13.00;99.90;;;;;;5073850;28;20027;-72
2022/07/01 04:15:12;;;;;;;25.15;13.77;;;13.00;99.90;;;;;;5073198;28;20496;-72
2022/07/01 04:17:37;;;;;;;26.30;13.52;;;13.00;99.90;;;;;;5072871;28;20457;-70
2022/07/01 04:20:04;;;;;;;29.25;13.60;;;13.00;99.90;;;;;;5073551;28;20103;-71
2022/07/01 04:22:32;;;;;;;21.00;12.90;;;13.10;99.90;;;;;;5073425;28;20017;-71
2022/07/01 04:24:59;;;;;;;25.52;12.38;;;13.10;99.90;;;;;;5073330;28;20454;-71
2022/07/01 04:27:25;;;;;;;25.38;12.75;;;13.00;99.90;;;;;;5073454;28;20081;-71
2022/07/01 04:29:50;;;;;;;28.83;12.93;;;13.00;99.90;;;;;;5073154;28;20113;-72
2022/07/01 04:32:17;;;;;;;24.58;12.40;;;13.00;99.90;;;;;;5073264;28;20032;-70
2022/07/01 04:34:43;;;;;;;18.92;12.20;;;13.00;99.90;;;;;;5073215;28;20028;-70
2022/07/01 04:37:08;;;;;;;15.90;12.00;;;13.10;99.90;;;;;;5073271;28;20116;-70
2022/07/01 04:39:34;;;;;;;21.35;11.73;;;13.00;99.90;;;;;;5073098;28;20074;-71
2022/07/01 04:42:00;;;;;;;17.67;11.85;;;13.10;99.90;;;;;;5073219;28;20113;-71
2022/07/01 04:44:30;;;;;;;28.88;12.05;;;13.00;99.90;;;;;;5072713;28;20499;-70
2022/07/01 04:46:56;;;;;;;22.63;12.52;;;12.90;99.90;;;;;;5065212;28;20090;-72
2022/07/01 04:49:22;;;;;;;23.25;12.05;;;13.10;99.90;;;;;;5068012;28;20064;-71
2022/07/01 04:51:48;;;;;;;24.92;11.70;;;13.20;99.90;;;;;;5072961;28;20071;-73
2022/07/01 04:54:14;;;;;;;23.10;12.25;;;13.10;99.90;;;;;;5073020;28;20029;-71
2022/07/01 04:56:40;;;;;;;24.95;11.68;;;13.00;99.90;;;;;;5071702;28;20035;-72
2022/07/01 04:59:06;;;;;;;20.67;11.20;;;13.10;99.90;;;;;;5072756;28;20491;-72
2022/07/01 05:01:32;;;;;;;21.52;12.23;;;13.00;99.90;;;;;;5072873;28;20104;-71
2022/07/01 05:03:59;;;;;;;21.38;11.98;;;13.10;99.90;;;;;;5072902;28;20073;-72
2022/07/01 05:06:24;;;;;;;24.17;11.80;;;13.20;99.90;;;;;;5072725;28;20063;-72
2022/07/01 05:08:51;;;;;;;22.50;11.20;;;13.20;99.90;;;;;;5070607;28;20547;-70
2022/07/01 05:11:17;;;;;;;17.02;11.48;;;13.20;99.90;;;;;;5072956;28;20408;-72
2022/07/01 05:13:42;;;;;;;23.00;11.70;;;13.40;99.90;;;;;;5072412;28;20028;-71
2022/07/01 05:16:09;;;;;;;19.67;10.88;;;13.40;99.90;;;;;;5072651;28;20035;-72
2022/07/01 05:24:06;;;;;;;20.02;10.73;;;13.40;99.90;;;;;;5072555;28;20035;-72
2022/07/01 05:26:32;;;;;;;22.80;11.57;;;13.50;99.90;;;;;;5072755;28;20448;-71
2022/07/01 05:28:58;;;;;;;21.25;11.68;;;13.50;99.90;;;;;;5072206;28;20071;-70
2022/07/01 05:31:24;;;;;;;19.95;10.20;;;13.60;99.90;;;;;;5072538;28;20025;-71
2022/07/01 05:33:50;;;;;;;23.80;10.48;;;13.50;99.90;;;;;;5072790;28;20051;-71
2022/07/01 05:36:15;;;;;;;21.70;9.75;;;13.60;99.90;;;;;;5072354;28;20021;-71
2022/07/01 05:38:42;;;;;;;25.02;10.35;;;13.60;99.90;;;;;;5072502;28;20047;-73
2022/07/01 05:41:09;;;;;;;21.17;9.63;;;13.60;99.90;;;;;;5072349;28;20097;-71
2022/07/01 05:43:34;;;;;;;25.17;9.63;;;13.60;99.90;;;;;;5072244;28;20542;-71
2022/07/01 05:46:01;;;;;;;17.88;9.15;;;13.60;99.90;;;;;;5072018;28;20060;-72
2022/07/01 05:48:27;;;;;;;18.48;9.48;;;13.70;99.90;;;;;;5059880;28;20040;-72
2022/07/01 05:50:53;;;;;;;18.58;8.82;;;14.00;99.90;;;;;;5072661;28;20087;-72
2022/07/01 05:53:19;;;;;;;21.38;8.43;;;13.90;99.90;;;;;;5070837;28;20032;-72
2022/07/01 05:55:45;;;;;;;16.65;7.30;;;14.00;99.90;;;;;;5072469;28;20099;-71
2022/07/01 05:58:12;;;;;;;14.93;7.10;;;13.90;99.90;;;;;;5071813;28;20025;-71
2022/07/01 06:00:41;;;;;;;24.50;6.85;;;13.70;99.90;;;;;;5072618;28;20465;-72
2022/07/01 06:03:11;;;;;;;12.55;6.47;;;13.80;99.90;;;;;;5071065;28;20043;-71
2022/07/01 06:05:38;;;;;;;18.63;6.80;;;13.70;99.90;;;;;;5072268;28;20086;-72
2022/07/01 06:08:05;;;;;;;14.63;5.78;;;13.80;99.90;;;;;;5070148;28;20035;-71
2022/07/01 06:10:32;;;;;;;17.05;7.20;;;13.90;99.90;;;;;;5072288;28;20097;-73
2022/07/01 06:12:58;;;;;;;15.05;5.25;;;14.10;99.90;;;;;;5072039;28;20025;-73
2022/07/01 06:15:24;;;;;;;19.80;5.95;;;14.00;99.90;;;;;;5072054;28;20423;-73
2022/07/01 06:17:51;;;;;;;11.98;5.20;;;14.30;99.90;;;;;;5072198;28;20082;-73
2022/07/01 06:20:17;;;;;;;11.70;5.57;;;14.40;99.90;;;;;;5073039;28;20024;-71
2022/07/01 06:22:43;;;;;;;16.48;5.22;;;14.20;99.90;;;;;;5075720;28;20099;-72
2022/07/01 06:25:09;;;;;;;10.77;4.65;;;14.20;99.90;;;;;;5075582;28;20108;-73
2022/07/01 06:27:39;;;;;;;11.52;5.55;;;14.20;99.90;;;;;;5075084;28;20021;-71
2022/07/01 06:30:05;;;;;;;13.88;5.20;;;14.30;99.90;;;;;;5075859;28;20081;-73
2022/07/01 06:32:31;;;;;;;11.45;4.63;;;14.30;99.90;;;;;;5075225;28;20029;-72
2022/07/01 06:34:57;;;;;;;11.18;5.28;;;14.50;99.90;;;;;;5075684;28;20419;-73
2022/07/01 06:37:22;;;;;;;16.50;5.35;;;14.50;99.90;;;;;;5075126;28;20031;-72
2022/07/01 06:39:48;;;;;;;11.48;5.40;;;14.80;99.90;;;;;;5075532;28;20086;-71
2022/07/01 06:42:14;;;;;;;17.63;4.97;;;15.00;99.90;;;;;;5075102;28;20035;-73
2022/07/01 06:44:43;;;;;;;22.52;5.03;;;15.00;99.90;;;;;;5075358;28;20016;-72
2022/07/01 06:47:08;;;;;;;14.43;5.57;;;14.90;99.90;;;;;;5065441;28;20032;-73
2022/07/01 06:49:34;;;;;;;11.48;3.80;;;15.00;99.90;;;;;;5071805;28;20049;-74
2022/07/01 06:52:00;;;;;;;11.68;3.75;;;15.00;99.90;;;;;;5076060;28;20029;-73
2022/07/01 06:54:28;;;;;;;11.10;3.83;;;15.00;99.90;;;;;;5074812;28;20025;-72
2022/07/01 06:56:54;;;;;;;16.17;4.28;;;15.20;99.90;;;;;;5075407;28;20013;-69
2022/07/01 06:59:20;;;;;;;9.75;4.00;;;15.40;99.90;;;;;;5074853;28;20047;-73
2022/07/01 07:01:45;;;;;;;14.23;3.63;;;15.60;99.90;;;;;;5075009;28;20021;-72
2022/07/01 07:04:11;;;;;;;11.35;3.58;;;15.40;99.90;;;;;;5074897;28;20033;-72
2022/07/01 07:06:37;;;;;;;13.75;3.17;;;15.40;99.90;;;;;;5075016;28;20024;-72
2022/07/01 07:09:03;;;;;;;7.20;3.05;;;15.70;99.90;;;;;;5072462;28;20039;-72
2022/07/01 07:11:29;;;;;;;13.75;3.40;;;15.70;99.90;;;;;;5074950;28;20362;-68
2022/07/01 07:13:54;;;;;;;12.13;2.92;;;15.60;99.90;;;;;;5074696;28;20021;-71
2022/07/01 07:16:20;;;;;;;10.38;3.05;;;15.60;99.90;;;;;;5075019;28;20117;-73
2022/07/01 07:18:47;;;;;;;14.80;2.83;;;15.60;99.90;;;;;;5074386;28;20020;-71
2022/07/01 07:21:13;;;;;;;7.45;2.47;;;15.50;99.90;;;;;;5074657;28;20036;-73
2022/07/01 07:23:39;;;;;;;13.02;3.08;;;15.60;99.90;;;;;;5073120;28;20089;-72
2022/07/01 07:26:05;;;;;;;13.50;4.55;;;15.80;99.90;;;;;;5074546;28;20061;-72
2022/07/01 07:28:30;;;;;;;7.40;2.20;;;15.80;99.90;;;;;;5074296;28;20036;-72
2022/07/01 07:30:56;;;;;;;9.00;2.90;;;16.10;99.90;;;;;;5074372;28;20543;-72
2022/07/01 07:33:22;;;;;;;11.10;2.70;;;16.10;99.90;;;;;;5072743;28;20044;-72
2022/07/01 07:35:48;;;;;;;12.43;2.20;;;15.90;99.90;;;;;;5074364;28;20025;-71
2022/07/01 07:38:14;;;;;;;12.07;2.65;;;16.30;99.90;;;;;;5073944;28;20028;-71
2022/07/01 07:40:39;;;;;;;9.25;3.05;;;16.70;99.90;;;;;;5074394;28;20421;-71
2022/07/01 07:43:07;;;;;;;13.18;2.40;;;16.30;99.90;;;;;;5074080;28;20017;-72
2022/07/01 07:45:33;;;;;;;7.75;2.05;;;16.50;99.90;;;;;;5074284;28;20032;-73
2022/07/01 07:48:00;;;;;;;13.27;2.67;;;16.60;99.90;;;;;;5060978;28;20039;-71
2022/07/01 07:50:26;;;;;;;10.10;2.25;;;16.60;99.90;;;;;;5074096;28;20107;-72
2022/07/01 07:52:52;;;;;;;7.43;1.92;;;16.50;99.90;;;;;;5073907;28;20029;-73
2022/07/01 07:55:18;;;;;;;10.48;2.10;;;16.90;99.90;;;;;;5074006;28;20051;-73
2022/07/01 07:57:44;;;;;;;8.73;1.98;;;16.90;99.90;;;;;;5073800;28;20500;-73
2022/07/01 08:00:12;;;;;;;10.30;2.47;;;16.90;99.90;;;;;;5073790;28;20473;-72
2022/07/01 08:02:39;;;;;;;9.60;2.05;;;17.00;99.90;;;;;;5073710;28;20025;-72
2022/07/01 08:05:06;;;;;;;9.30;1.63;;;17.00;99.90;;;;;;5073591;28;20025;-72
2022/07/01 08:07:42;;;;;;;7.03;1.35;;;17.10;99.90;;;;;;5073241;28;20024;-71
2022/07/01 08:10:11;;;;;;;10.82;2.88;;;17.10;99.90;;;;;;5071572;28;20042;-73
2022/07/01 08:12:37;;;;;;;7.63;1.85;;;16.90;99.90;;;;;;5073813;28;20020;-73
2022/07/01 08:15:04;;;;;;;5.95;1.60;;;17.00;99.90;;;;;;5073604;28;20032;-74
2022/07/01 08:17:30;;;;;;;6.63;1.58;;;17.10;99.90;;;;;;5073594;28;20021;-73
2022/07/01 08:19:56;;;;;;;7.45;1.50;;;17.10;99.90;;;;;;5073296;28;20465;-72
2022/07/01 08:22:22;;;;;;;7.55;1.50;;;17.00;99.90;;;;;;5073224;28;20020;-73
2022/07/01 08:24:48;;;;;;;10.13;1.63;;;17.20;99.90;;;;;;5073209;28;20031;-73
2022/07/01 08:27:14;;;;;;;4.35;1.55;;;17.20;99.90;;;;;;5073412;28;20028;-72
2022/07/01 08:29:41;;;;;;;9.10;1.65;;;16.90;99.90;;;;;;5073190;28;20043;-73
2022/07/01 08:32:07;;;;;;;9.65;1.75;;;17.00;99.90;;;;;;5071853;28;20024;-74
2022/07/01 08:34:35;;;;;;;2.22;1.30;;;17.40;99.90;;;;;;5071794;28;20089;-73
2022/07/01 08:37:04;;;;;;;9.70;1.80;;;17.60;99.90;;;;;;5072947;28;20032;-72
2022/07/01 08:39:30;;;;;;;10.60;1.95;;;17.80;99.90;;;;;;5073026;28;20192;-73
2022/07/01 08:41:56;;;;;;;7.15;2.03;;;17.50;99.90;;;;;;5073520;28;20160;-72
2022/07/01 08:44:22;;;;;;;6.45;1.83;;;17.50;99.90;;;;;;5072600;28;20032;-72
2022/07/01 08:46:48;;;;;;;9.38;1.58;;;17.40;99.90;;;;;;5066027;28;20422;-73
2022/07/01 08:49:16;;;;;;;9.05;1.42;;;17.70;99.90;;;;;;5067001;28;20093;-73
2022/07/01 08:51:42;;;;;;;5.78;1.20;;;17.50;99.90;;;;;;5072943;28;20025;-72
2022/07/01 08:54:07;;;;;;;6.05;1.05;;;17.50;99.90;;;;;;5073099;28;20067;-74
2022/07/01 08:56:43;;;;;;;6.28;1.23;;;17.80;99.90;;;;;;5072585;28;20024;-72
2022/07/01 08:59:20;;;;;;;4.97;1.67;;;17.80;99.90;;;;;;5072956;28;20025;-74
2022/07/01 09:01:46;;;;;;;11.27;1.30;;;18.30;99.90;;;;;;5072639;28;20032;-74
2022/07/01 09:04:17;;;;;;;8.02;1.15;;;18.10;99.90;;;;;;5073100;28;20028;-72
2022/07/01 09:06:44;;;;;;;9.30;1.63;;;18.30;99.90;;;;;;5072958;28;20031;-74
2022/07/01 09:09:20;;;;;;;5.40;1.38;;;17.70;99.90;;;;;;5070660;28;20427;-72
2022/07/01 09:11:54;;;;;;;6.53;1.40;;;17.60;99.90;;;;;;5072852;28;20025;-73
2022/07/01 09:14:31;;;;;;;4.97;1.40;;;17.80;99.90;;;;;;5046281;28;20389;-72
2022/07/01 09:17:06;;;;;;;3.72;1.02;;;18.30;99.90;;;;;;5072658;28;20373;-72
2022/07/01 09:19:36;;;;;;;6.38;1.15;;;18.30;99.90;;;;;;5072338;28;20037;-72
2022/07/01 09:22:04;;;;;;;11.75;1.45;;;17.80;99.90;;;;;;5072773;28;20492;-73
2022/07/01 09:24:34;;;;;;;6.55;0.98;;;18.10;99.90;;;;;;5045486;28;20020;-71
2022/07/01 09:27:12;;;;;;;7.68;1.17;;;18.40;99.90;;;;;;5072706;28;20021;-74
2022/07/01 09:29:40;;;;;;;6.28;1.20;;;18.10;99.90;;;;;;5045862;28;20043;-73
2022/07/01 09:32:08;;;;;;;6.97;1.15;;;18.30;99.90;;;;;;5072421;28;20480;-73
2022/07/01 09:34:41;;;;;;;7.10;1.05;;;18.20;99.90;;;;;;5072294;28;20024;-74
2022/07/01 09:37:07;;;;;;;5.70;1.13;;;18.40;99.90;;;;;;5072585;28;20086;-74
2022/07/01 09:39:43;;;;;;;5.43;1.10;;;18.30;99.90;;;;;;5072547;28;20115;-73
2022/07/01 09:42:09;;;;;;;5.13;1.05;;;18.10;99.90;;;;;;5072513;28;20016;-74
2022/07/01 09:44:35;;;;;;;7.75;1.25;;;17.80;99.90;;;;;;5072496;28;20385;-73
2022/07/01 09:47:01;;;;;;;11.15;1.10;;;18.00;99.90;;;;;;5063720;28;20074;-72
2022/07/01 09:49:27;;;;;;;6.15;1.02;;;18.00;99.90;;;;;;5068427;28;20204;-73
2022/07/01 09:51:53;;;;;;;6.35;1.05;;;17.90;99.90;;;;;;5072244;28;20059;-72
2022/07/01 09:54:20;;;;;;;1.92;0.60;;;17.70;99.90;;;;;;5072664;28;20059;-72
2022/07/01 09:56:46;;;;;;;3.25;0.70;;;17.70;99.90;;;;;;5047401;28;20096;-74
2022/07/01 09:59:12;;;;;;;8.32;1.30;;;17.90;99.90;;;;;;5074980;28;20575;-72
2022/07/01 10:01:43;;;;;;;12.75;1.30;;;18.20;99.90;;;;;;5075932;28;20020;-73
2022/07/01 10:04:10;;;;;;;8.52;1.42;;;18.40;99.90;;;;;;5075792;28;20111;-74
2022/07/01 10:07:10;;;;;;;4.47;1.05;;;18.50;99.90;;;;;;5074715;28;20100;-72
2022/07/01 10:09:50;;;;;;;5.88;1.48;;;18.60;99.90;;;;;;5025048;28;20073;-74
2022/07/01 10:12:48;;;;;;;5.88;1.20;;;18.70;99.90;;;;;;5071129;28;20031;-73
2022/07/01 10:15:18;;;;;;;5.03;1.38;;;18.60;99.90;;;;;;5075370;28;20602;-73
2022/07/01 10:17:49;;;;;;;5.18;1.10;;;18.70;99.90;;;;;;5074274;28;20389;-73
2022/07/01 10:20:26;;;;;;;4.65;1.08;;;18.90;99.90;;;;;;5074762;28;20028;-72
2022/07/01 10:23:01;;;;;;;7.72;1.98;;;19.10;99.90;;;;;;5076017;28;20123;-74
2022/07/01 10:25:32;;;;;;;7.18;1.40;;;19.50;99.90;;;;;;5075686;28;20025;-73
2022/07/01 10:28:20;;;;;;;4.05;1.00;;;19.80;99.90;;;;;;5075507;28;20496;-75
2022/07/01 10:30:56;;;;;;;7.32;1.02;;;19.80;99.90;;;;;;5074387;28;20028;-73
2022/07/01 10:33:39;;;;;;;4.32;1.05;;;20.10;99.90;;;;;;5075180;28;20084;-74
2022/07/01 10:36:36;;;;;;;6.13;2.10;;;20.20;99.90;;;;;;5075432;28;20530;-74
2022/07/01 10:39:08;;;;;;;5.22;1.40;;;20.10;99.90;;;;;;5066268;28;20032;-74
2022/07/01 10:41:39;;;;;;;9.60;1.23;;;19.80;99.90;;;;;;5049222;28;20055;-74
2022/07/01 10:44:08;;;;;;;5.65;1.35;;;19.20;99.90;;;;;;5075330;28;20032;-72
2022/07/01 10:46:46;;;;;;;4.85;1.10;;;18.90;99.90;;;;;;5070243;28;20437;-74
2022/07/01 10:49:36;;;;;;;3.38;1.10;;;19.20;99.90;;;;;;5069421;28;20044;-72
2022/07/01 10:52:12;;;;;;;2.13;0.93;;;19.30;99.90;;;;;;5068799;28;20045;-72
2022/07/01 10:54:43;;;;;;;4.82;0.98;;;19.60;99.90;;;;;;5075057;28;20056;-74
2022/07/01 10:57:22;;;;;;;7.68;1.73;;;19.60;99.90;;;;;;5073873;28;20024;-73
2022/07/01 11:00:00;;;;;;;3.13;0.80;;;19.90;99.90;;;;;;5074720;28;20021;-72
2022/07/01 11:02:39;;;;;;;7.97;1.38;;;20.00;99.90;;;;;;5074637;28;20037;-73
2022/07/01 11:05:11;;;;;;;7.15;0.93;;;20.00;99.90;;;;;;5074741;28;20042;-73
2022/07/01 11:07:42;;;;;;;3.70;1.05;;;20.00;99.90;;;;;;5074380;28;20021;-73
2022/07/01 11:10:10;;;;;;;8.52;1.48;;;20.00;99.90;;;;;;5072774;28;20032;-73
2022/07/01 11:12:36;;;;;;;3.65;1.00;;;20.10;99.90;;;;;;5047317;28;20442;-72
2022/07/01 11:15:06;;;;;;;9.75;1.27;;;20.20;99.90;;;;;;5074632;28;20024;-74
2022/07/01 11:17:34;;;;;;;4.40;1.25;;;20.10;99.90;;;;;;5074828;28;20020;-73
2022/07/01 11:20:04;;;;;;;5.75;1.17;;;19.70;99.90;;;;;;5073414;28;20029;-72
2022/07/01 11:22:33;;;;;;;8.13;1.88;;;20.00;99.90;;;;;;5074439;28;20400;-72
2022/07/01 11:25:05;;;;;;;5.40;2.03;;;20.60;99.90;;;;;;5074437;28;20025;-74
2022/07/01 11:27:32;;;;;;;3.75;0.98;;;20.70;99.50;;;;;;5074323;28;20025;-74
2022/07/01 11:30:00;;;;;;;2.40;0.98;;;20.70;99.90;;;;;;5074186;28;20028;-72
2022/07/01 11:32:31;;;;;;;1.75;0.80;;;20.40;99.10;;;;;;5073960;28;20032;-75
2022/07/01 11:34:59;;;;;;;3.92;1.00;;;20.50;99.90;;;;;;5074189;28;20108;-72
2022/07/01 11:40:14;;;;;;;6.80;1.05;;;19.90;99.90;;;;;;5074178;28;20418;-72
2022/07/01 11:42:40;;;;;;;5.53;1.17;;;19.80;99.90;;;;;;5074307;28;20140;-73
2022/07/01 11:45:07;;;;;;;2.17;0.77;;;19.80;99.90;;;;;;5073927;28;20024;-73
2022/07/01 11:47:33;;;;;;;2.20;0.70;;;20.10;99.60;;;;;;5059413;28;20041;-74
2022/07/01 11:50:00;;;;;;;5.07;1.08;;;20.30;99.30;;;;;;5074144;28;20021;-74
2022/07/01 11:52:27;;;;;;;5.60;1.25;;;20.80;98.80;;;;;;5074099;28;20025;-73
2022/07/01 11:54:57;;;;;;;9.82;1.45;;;20.90;99.90;;;;;;5073945;28;20017;-72
2022/07/01 11:57:26;;;;;;;3.67;0.98;;;20.80;97.80;;;;;;5073909;28;20033;-74
2022/07/01 11:59:54;;;;;;;4.00;1.00;;;20.60;99.00;;;;;;5072904;28;20027;-73
2022/07/01 12:02:24;;;;;;;4.45;1.00;;;21.10;98.70;;;;;;5073845;28;20043;-74
2022/07/01 12:04:51;;;;;;;4.60;1.00;;;21.30;99.10;;;;;;5073602;28;20452;-73
2022/07/01 12:07:21;;;;;;;4.47;0.90;;;21.20;98.00;;;;;;5074043;28;20021;-74
2022/07/01 12:09:47;;;;;;;10.43;1.60;;;20.80;98.40;;;;;;5071629;28;20047;-73
2022/07/01 12:12:18;;;;;;;6.47;0.90;;;21.00;99.90;;;;;;5073484;28;20059;-73
2022/07/01 12:14:51;;;;;;;4.25;0.80;;;21.20;97.50;;;;;;5073507;28;20064;-73
2022/07/01 12:17:17;;;;;;;4.95;1.17;;;21.20;96.90;;;;;;5073144;28;20056;-73
2022/07/01 12:19:47;;;;;;;4.18;0.90;;;21.80;97.20;;;;;;5072941;28;20064;-73
2022/07/01 12:22:21;;;;;;;6.15;0.82;;;21.70;96.50;;;;;;5073380;28;20064;-73
2022/07/01 12:24:48;;;;;;;5.85;0.90;;;21.40;96.50;;;;;;5073386;28;20016;-74
2022/07/01 12:27:14;;;;;;;8.02;1.00;;;21.20;96.90;;;;;;5073359;28;20477;-75
2022/07/01 12:29:47;;;;;;;7.95;1.48;;;21.10;97.50;;;;;;5072972;28;20043;-74
2022/07/01 12:32:13;;;;;;;;;;;20.30;96.80;;;;;;5073601;28;20531;-74
2022/07/01 12:34:47;;;;;;;4.40;1.20;;;20.40;97.70;;;;;;5072929;28;19904;-73
2022/07/01 12:37:15;;;;;;;6.20;0.90;;;20.40;98.20;;;;;;5073321;28;20024;-73
2022/07/01 12:39:54;;;;;;;9.07;1.17;;;20.40;97.60;;;;;;5071597;28;20025;-74
2022/07/01 12:42:33;;;;;;;10.68;1.33;;;20.40;97.60;;;;;;5073181;28;20468;-73
2022/07/01 12:45:02;;;;;;;6.07;1.00;;;20.30;98.60;;;;;;5047004;28;20028;-74
2022/07/01 12:47:32;;;;;;;6.55;1.48;;;20.30;99.90;;;;;;5060782;28;20116;-73
2022/07/01 12:50:21;;;;;;;6.53;1.70;;;18.80;99.90;;;;;;5045053;28;20048;-72